KGDV/GDV METAR and TAF weather

Enter ICAO airport designator
Station Type Date Time Source
KGDV METAR 2021/10/20 06:56 UTC NOAA

KGDV 200656Z AUTO 01006KT 10SM CLR M01/M03 A3029 RMK AO2 SLP280 T10111033 400781011 FZRANO


Station Type Date Time Source
KGDV Decoded METAR 2021/10/20 06:56 UTC NOAA

Glendive, Dawson Community Airport, MT, United States (KGDV) 47-08N 104-48W
Oct 20, 2021 - 02:56 AM EDT / 2021.10.20 0656 UTC
Wind: from the N (010 degrees) at 7 MPH (6 KT):0
Visibility: 10 mile(s):0
Sky conditions: clear
Temperature: 30.0 F (-1.1 C)
Windchill: 23 F (-5 C):1
Dew Point: 26.1 F (-3.3 C)
Relative Humidity: 84%
Pressure (altimeter): 30.29 in. Hg (1025 hPa)
ob: KGDV 200656Z AUTO 01006KT 10SM CLR M01/M03 A3029 RMK AO2 SLP280 T10111033 400781011 FZRANO
cycle: 7

Station Type Date Time Source
KGDV TAF 2021/10/20 06:22 UTC NOAA

TAF KGDV 200520Z 2006/2106 03009KT P6SM SKC
FM201500 VRB04KT P6SM BKN011
FM202100 10007KT P6SM SKC

Example: see airport list